createdAt,value
2023-03-11T00:00:01.064Z,0.4
2023-03-11T00:01:01.634Z,0.4
2023-03-11T00:02:01.278Z,0.4
2023-03-11T00:03:01.835Z,0.4
2023-03-11T00:04:01.446Z,0.4
2023-03-11T00:05:01.071Z,0.3
2023-03-11T00:06:01.614Z,0.4
2023-03-11T00:07:01.206Z,0.3
2023-03-11T00:08:01.817Z,0.3
2023-03-11T00:09:01.414Z,0.4
2023-03-11T00:10:01.021Z,0.4
2023-03-11T00:11:01.608Z,0.3
2023-03-11T00:12:01.207Z,0.4
2023-03-11T00:13:01.776Z,0.3
2023-03-11T00:14:01.388Z,0.4
2023-03-11T00:15:01.026Z,0.4
2023-03-11T00:16:01.556Z,0.4
2023-03-11T00:17:01.148Z,0.4
2023-03-11T00:18:01.733Z,0.5
2023-03-11T00:19:01.366Z,0.5
2023-03-11T00:20:00.924Z,0.4
2023-03-11T00:21:01.495Z,0.4
2023-03-11T00:22:01.092Z,0.4
2023-03-11T00:23:01.687Z,0.4
2023-03-11T00:24:01.330Z,0.4
2023-03-11T00:25:00.845Z,0.3
2023-03-11T00:26:01.434Z,0.4
2023-03-11T00:27:01.025Z,0.3
2023-03-11T00:28:01.611Z,0.4
2023-03-11T00:29:01.236Z,0.4
2023-03-11T00:30:01.796Z,0.4
2023-03-11T00:31:01.506Z,0.4
2023-03-11T00:32:01.014Z,0.4
2023-03-11T00:33:01.594Z,0.4
2023-03-11T00:34:01.185Z,0.4
2023-03-11T00:35:01.789Z,0.4
2023-03-11T00:36:01.484Z,0.4
2023-03-11T00:37:00.991Z,0.4
2023-03-11T00:38:01.592Z,0.4
2023-03-11T00:39:01.209Z,0.4
2023-03-11T00:40:01.762Z,0.4
2023-03-11T00:41:01.381Z,0.4
2023-03-11T00:42:00.968Z,0.4
2023-03-11T00:43:01.554Z,0.4
2023-03-11T00:44:01.216Z,0.4
2023-03-11T00:45:00.877Z,0.4
2023-03-11T00:46:01.465Z,0.4
2023-03-11T00:47:01.053Z,0.3
2023-03-11T00:48:01.600Z,0.3
2023-03-11T00:49:01.192Z,0.3
2023-03-11T00:50:01.782Z,0.4
2023-03-11T00:51:01.372Z,0.3
2023-03-11T00:52:00.961Z,0.3
2023-03-11T00:53:01.532Z,0.3
2023-03-11T00:54:01.122Z,0.3
2023-03-11T00:55:01.726Z,0.3
2023-03-11T00:56:01.340Z,0.3
2023-03-11T00:57:00.889Z,0.3
2023-03-11T00:58:01.474Z,0.3
2023-03-11T00:59:01.065Z,0.3
2023-03-11T01:00:01.640Z,0.3
2023-03-11T01:01:01.310Z,0.3
2023-03-11T01:02:00.879Z,0.3
2023-03-11T01:03:01.413Z,0.3
2023-03-11T01:04:01.004Z,0.3
2023-03-11T01:05:01.595Z,0.3
2023-03-11T01:06:01.220Z,0.2
2023-03-11T01:07:01.790Z,0.2
2023-03-11T01:08:01.378Z,0.3
2023-03-11T01:09:00.971Z,0.2
2023-03-11T01:10:01.597Z,0.3
2023-03-11T01:11:01.224Z,0.3
2023-03-11T01:12:01.781Z,0.3
2023-03-11T01:13:01.436Z,0.3
2023-03-11T01:14:00.994Z,0.3
2023-03-11T01:15:01.574Z,0.3
2023-03-11T01:16:01.193Z,0.3
2023-03-11T01:17:01.740Z,0.3
2023-03-11T01:18:01.349Z,0.3
2023-03-11T01:19:00.963Z,0.3
2023-03-11T01:20:01.514Z,0.3
2023-03-11T01:21:01.105Z,0.3
2023-03-11T01:22:01.687Z,0.3
2023-03-11T01:23:01.299Z,0.3
2023-03-11T01:24:00.857Z,0.3
2023-03-11T01:25:01.442Z,0.3
2023-03-11T01:26:01.030Z,0.4
2023-03-11T01:27:01.621Z,0.3
2023-03-11T01:28:01.247Z,0.4
2023-03-11T01:29:01.795Z,0.3
2023-03-11T01:30:01.386Z,0.4
2023-03-11T01:31:00.999Z,0.4
2023-03-11T01:32:01.560Z,0.4
2023-03-11T01:33:01.177Z,0.3
2023-03-11T01:34:01.743Z,0.4
2023-03-11T01:35:01.362Z,0.4
2023-03-11T01:36:00.993Z,0.4
2023-03-11T01:37:01.527Z,0.4
2023-03-11T01:38:01.151Z,0.4
2023-03-11T01:39:01.697Z,0.4
2023-03-11T01:40:01.288Z,0.4
2023-03-11T01:41:00.887Z,0.4
2023-03-11T01:42:01.433Z,0.4
2023-03-11T01:43:01.022Z,0.4
2023-03-11T01:44:01.594Z,0.4
2023-03-11T01:45:01.205Z,0.4
2023-03-11T01:46:00.871Z,0.4
2023-03-11T01:47:01.342Z,0.4
2023-03-11T01:48:00.937Z,0.4
2023-03-11T01:49:01.506Z,0.4
2023-03-11T01:50:01.106Z,0.5
2023-03-11T01:51:01.734Z,0.4
2023-03-11T01:52:01.327Z,0.4
2023-03-11T01:53:00.901Z,0.4
2023-03-11T01:54:01.489Z,0.5
2023-03-11T01:55:01.087Z,0.4
2023-03-11T01:56:01.680Z,0.5
2023-03-11T01:57:01.271Z,0.4
2023-03-11T01:58:00.845Z,0.5
2023-03-11T01:59:01.416Z,0.4
2023-03-11T02:00:01.008Z,0.5
2023-03-11T02:01:01.609Z,0.4
2023-03-11T02:02:01.278Z,0.5
2023-03-11T02:03:01.833Z,0.4
2023-03-11T02:04:01.439Z,0.5
2023-03-11T02:05:00.985Z,0.4
2023-03-11T02:06:01.597Z,0.5
2023-03-11T02:07:01.219Z,0.5
2023-03-11T02:08:01.760Z,0.5
2023-03-11T02:09:01.366Z,0.5
2023-03-11T02:10:00.956Z,0.5
2023-03-11T02:11:01.561Z,0.4
2023-03-11T02:12:01.153Z,0.4
2023-03-11T02:13:01.753Z,0.4
2023-03-11T02:14:01.379Z,0.4
2023-03-11T02:15:01.002Z,0.5
2023-03-11T02:16:01.586Z,0.5
2023-03-11T02:17:01.204Z,0.5
2023-03-11T02:18:01.792Z,0.5
2023-03-11T02:19:01.398Z,0.5
2023-03-11T02:20:00.986Z,0.5
2023-03-11T02:21:01.561Z,0.5
2023-03-11T02:22:01.153Z,0.5
2023-03-11T02:23:01.753Z,0.5
2023-03-11T02:24:01.397Z,0.5
2023-03-11T02:25:00.959Z,0.5
2023-03-11T02:26:01.555Z,0.5
2023-03-11T02:27:01.244Z,0.5
2023-03-11T02:28:01.789Z,0.5
2023-03-11T02:29:01.418Z,0.4
2023-03-11T02:30:01.021Z,0.5
2023-03-11T02:31:01.676Z,0.5
2023-03-11T02:32:01.230Z,0.4
2023-03-11T02:33:00.823Z,0.4
2023-03-11T02:34:01.413Z,0.4
2023-03-11T02:35:01.009Z,0.4
2023-03-11T02:36:01.655Z,0.3
2023-03-11T02:37:01.257Z,0.3
2023-03-11T02:38:00.817Z,0.3
2023-03-11T02:39:01.420Z,0.3
2023-03-11T02:40:01.032Z,0.3
2023-03-11T02:41:01.603Z,0.3
2023-03-11T02:42:01.195Z,0.2
2023-03-11T02:43:01.772Z,0.2
2023-03-11T02:44:01.370Z,0.2
2023-03-11T02:45:00.988Z,0.2
2023-03-11T02:46:01.544Z,0.2
2023-03-11T02:47:01.298Z,0.1
2023-03-11T02:48:01.706Z,0.1
2023-03-11T02:49:01.294Z,0
2023-03-11T02:50:00.890Z,0
2023-03-11T02:51:01.455Z,0.1
2023-03-11T02:52:01.058Z,0.1
2023-03-11T02:53:01.639Z,0.1
2023-03-11T02:54:01.231Z,0.1
2023-03-11T02:55:00.865Z,0.1
2023-03-11T02:56:01.395Z,0.1
2023-03-11T02:57:00.990Z,0.2
2023-03-11T02:58:01.585Z,0.2
2023-03-11T02:59:01.189Z,0.2
2023-03-11T03:00:01.782Z,0.3
2023-03-11T03:01:01.475Z,0.3
2023-03-11T03:02:00.995Z,0.3
2023-03-11T03:03:01.567Z,0.3
2023-03-11T03:04:01.198Z,0.3
2023-03-11T03:05:01.766Z,0.3
2023-03-11T03:06:01.359Z,0.3
2023-03-11T03:07:00.960Z,0.4
2023-03-11T03:08:01.547Z,0.4
2023-03-11T03:09:01.138Z,0.4
2023-03-11T03:10:01.746Z,0.4
2023-03-11T03:11:01.363Z,0.4
2023-03-11T03:12:00.914Z,0.5
2023-03-11T03:13:01.479Z,0.5
2023-03-11T03:14:01.091Z,0.5
2023-03-11T03:15:01.690Z,0.5
2023-03-11T03:16:01.278Z,0.6
2023-03-11T03:17:00.921Z,0.5
2023-03-11T03:18:01.427Z,0.5
2023-03-11T03:19:01.070Z,0.5
2023-03-11T03:20:01.631Z,0.5
2023-03-11T03:21:01.232Z,0.5
2023-03-11T03:22:00.806Z,0.5
2023-03-11T03:23:01.380Z,0.5
2023-03-11T03:24:00.989Z,0.5
2023-03-11T03:25:01.553Z,0.5
2023-03-11T03:26:01.142Z,0.5
2023-03-11T03:27:01.752Z,0.5
2023-03-11T03:28:01.350Z,0.5
2023-03-11T03:29:00.967Z,0.5
2023-03-11T03:30:01.527Z,0.5
2023-03-11T03:31:01.139Z,0.5
2023-03-11T03:32:01.786Z,0.5
2023-03-11T03:33:01.350Z,0.5
2023-03-11T03:34:00.940Z,0.5
2023-03-11T03:35:01.521Z,0.5
2023-03-11T03:36:01.168Z,0.5
2023-03-11T03:37:01.687Z,0.4
2023-03-11T03:38:01.294Z,0.4
2023-03-11T03:39:00.862Z,0.4
2023-03-11T03:40:01.457Z,0.4
2023-03-11T03:41:01.077Z,0.5
2023-03-11T03:42:01.634Z,0.5
2023-03-11T03:43:01.248Z,0.5
2023-03-11T03:44:00.835Z,0.5
2023-03-11T03:45:01.390Z,0.5
2023-03-11T03:46:01.079Z,0.5
2023-03-11T03:47:01.641Z,0.5
2023-03-11T03:48:01.200Z,0.5
2023-03-11T03:49:01.782Z,0.5
2023-03-11T03:50:01.383Z,0.5
2023-03-11T03:51:00.973Z,0.5
2023-03-11T03:52:01.572Z,0.5
2023-03-11T03:53:01.163Z,0.6
2023-03-11T03:54:01.739Z,0.5
2023-03-11T03:55:01.327Z,0.6
2023-03-11T03:56:00.917Z,0.6
2023-03-11T03:57:01.515Z,0.5
2023-03-11T03:58:01.104Z,0.5
2023-03-11T03:59:01.699Z,0.5
2023-03-11T04:00:01.300Z,0.5
2023-03-11T04:01:00.866Z,0.5
2023-03-11T04:02:01.506Z,0.5
2023-03-11T04:03:01.139Z,0.5
2023-03-11T04:04:01.685Z,0.5
2023-03-11T04:05:01.332Z,0.5
2023-03-11T04:06:00.903Z,0.5
2023-03-11T04:07:01.492Z,0.5
2023-03-11T04:08:01.102Z,0.5
2023-03-11T04:09:01.667Z,0.5
2023-03-11T04:10:01.259Z,0.4
2023-03-11T04:11:00.831Z,0.5
2023-03-11T04:12:01.415Z,0.5
2023-03-11T04:13:01.025Z,0.5
2023-03-11T04:14:01.576Z,0.5
2023-03-11T04:15:01.212Z,0.5
2023-03-11T04:16:01.756Z,0.5
2023-03-11T04:17:01.353Z,0.5
2023-03-11T04:18:00.964Z,0.5
2023-03-11T04:19:01.525Z,0.5
2023-03-11T04:20:01.142Z,0.5
2023-03-11T04:21:01.681Z,0.5
2023-03-11T04:22:01.328Z,0.5
2023-03-11T04:23:00.895Z,0.5
2023-03-11T04:24:01.478Z,0.5
2023-03-11T04:25:01.100Z,0.5
2023-03-11T04:26:01.679Z,0.5
2023-03-11T04:27:01.276Z,0.5
2023-03-11T04:28:00.856Z,0.5
2023-03-11T04:29:01.427Z,0.5
2023-03-11T04:30:01.040Z,0.5
2023-03-11T04:31:01.716Z,0.5
2023-03-11T04:32:01.262Z,0.5
2023-03-11T04:33:00.847Z,0.5
2023-03-11T04:34:01.423Z,0.5
2023-03-11T04:35:01.045Z,0.5
2023-03-11T04:36:01.620Z,0.5
2023-03-11T04:37:01.218Z,0.5
2023-03-11T04:38:01.791Z,0.5
2023-03-11T04:39:01.512Z,0.5
2023-03-11T04:40:01.057Z,0.5
2023-03-11T04:41:01.609Z,0.4
2023-03-11T04:42:03.860Z,0.5
2023-03-11T04:43:01.756Z,0.5
2023-03-11T04:44:01.348Z,0.5
2023-03-11T04:45:00.945Z,0.5
2023-03-11T04:46:01.603Z,0.5
2023-03-11T04:47:01.207Z,0.4
2023-03-11T04:48:00.815Z,0.4
2023-03-11T04:49:01.332Z,0.4
2023-03-11T04:50:00.917Z,0.4
2023-03-11T04:51:01.502Z,0.4
2023-03-11T04:52:01.111Z,0.5
2023-03-11T04:53:01.687Z,0.4
2023-03-11T04:54:01.301Z,0.5
2023-03-11T04:55:00.865Z,0.5
2023-03-11T04:56:01.429Z,0.5
2023-03-11T04:57:01.041Z,0.5
2023-03-11T04:58:01.619Z,0.4
2023-03-11T04:59:01.220Z,0.4
2023-03-11T05:00:01.785Z,0.4
2023-03-11T05:01:01.375Z,0.4
2023-03-11T05:02:00.991Z,0.4
2023-03-11T05:03:01.590Z,0.4
2023-03-11T05:04:01.177Z,0.4
2023-03-11T05:05:01.844Z,0.4
2023-03-11T05:06:01.497Z,0.4
2023-03-11T05:07:01.012Z,0.4
2023-03-11T05:08:01.624Z,0.3
2023-03-11T05:09:01.225Z,0.4
2023-03-11T05:10:01.798Z,0.4
2023-03-11T05:11:01.396Z,0.4
2023-03-11T05:12:01.015Z,0.4
2023-03-11T05:13:01.608Z,0.4
2023-03-11T05:14:01.198Z,0.3
2023-03-11T05:15:01.783Z,0.3
2023-03-11T05:16:01.416Z,0.3
2023-03-11T05:17:01.027Z,0.3
2023-03-11T05:18:01.635Z,0.3
2023-03-11T05:19:01.263Z,0.3
2023-03-11T05:20:00.835Z,0.3
2023-03-11T05:21:01.384Z,0.3
2023-03-11T05:22:00.971Z,0.3
2023-03-11T05:23:01.576Z,0.3
2023-03-11T05:24:01.187Z,0.3
2023-03-11T05:25:01.772Z,0.3
2023-03-11T05:26:01.383Z,0.3
2023-03-11T05:27:00.972Z,0.3
2023-03-11T05:28:01.562Z,0.3
2023-03-11T05:29:01.186Z,0.3
2023-03-11T05:30:01.748Z,0.3
2023-03-11T05:31:01.369Z,0.3
2023-03-11T05:32:00.971Z,0.4
2023-03-11T05:33:01.538Z,0.3
2023-03-11T05:34:01.164Z,0.3
2023-03-11T05:35:01.764Z,0.3
2023-03-11T05:36:01.443Z,0.3
2023-03-11T05:37:02.981Z,0.3
2023-03-11T05:38:01.490Z,0.3
2023-03-11T05:39:01.086Z,0.3
2023-03-11T05:40:01.701Z,0.3
2023-03-11T05:41:01.296Z,0.3
2023-03-11T05:42:00.874Z,0.3
2023-03-11T05:43:01.452Z,0.3
2023-03-11T05:44:01.083Z,0.3
2023-03-11T05:45:01.690Z,0.3
2023-03-11T05:46:01.281Z,0.3
2023-03-11T05:47:00.979Z,0.3
2023-03-11T05:48:01.495Z,0.3
2023-03-11T05:49:01.089Z,0.3
2023-03-11T05:50:01.696Z,0.3
2023-03-11T05:51:01.321Z,0.3
2023-03-11T05:52:00.869Z,0.3
2023-03-11T05:53:01.461Z,0.3
2023-03-11T05:54:01.065Z,0.3
2023-03-11T05:55:01.650Z,0.3
2023-03-11T05:56:01.248Z,0.4
2023-03-11T05:57:00.837Z,0.4
2023-03-11T05:58:01.430Z,0.4
2023-03-11T05:59:01.040Z,0.4
2023-03-11T06:00:01.603Z,0.4
2023-03-11T06:01:01.195Z,0.4
2023-03-11T06:02:01.782Z,0.4
2023-03-11T06:03:01.375Z,0.4
2023-03-11T06:04:01.074Z,0.4
2023-03-11T06:05:01.632Z,0.4
2023-03-11T06:06:01.203Z,0.3
2023-03-11T06:07:01.825Z,0.3
2023-03-11T06:08:01.429Z,0.3
2023-03-11T06:09:01.010Z,0.4
2023-03-11T06:10:01.584Z,0.4
2023-03-11T06:11:01.181Z,0.4
2023-03-11T06:12:01.782Z,0.4
2023-03-11T06:13:01.371Z,0.4
2023-03-11T06:14:00.962Z,0.3
2023-03-11T06:15:01.537Z,0.4
2023-03-11T06:16:01.142Z,0.4
2023-03-11T06:17:01.729Z,0.4
2023-03-11T06:18:01.315Z,0.4
2023-03-11T06:19:01.075Z,0.4
2023-03-11T06:20:01.489Z,0.3
2023-03-11T06:21:01.107Z,0.4
2023-03-11T06:22:01.693Z,0.4
2023-03-11T06:23:01.317Z,0.4
2023-03-11T06:24:00.852Z,0.4
2023-03-11T06:25:01.435Z,0.4
2023-03-11T06:26:01.025Z,0.4
2023-03-11T06:27:01.626Z,0.3
2023-03-11T06:28:01.219Z,0.4
2023-03-11T06:29:00.793Z,0.3
2023-03-11T06:30:01.367Z,0.3
2023-03-11T06:31:00.956Z,0.3
2023-03-11T06:32:01.552Z,0.3
2023-03-11T06:33:01.144Z,0.2
2023-03-11T06:34:01.749Z,0.3
2023-03-11T06:35:01.343Z,0.3
2023-03-11T06:36:01.038Z,0.2
2023-03-11T06:37:01.533Z,0.2
2023-03-11T06:38:01.130Z,0.3
2023-03-11T06:39:01.752Z,0.3
2023-03-11T06:40:01.343Z,0.2
2023-03-11T06:41:00.920Z,0.2
2023-03-11T06:42:01.500Z,0.2
2023-03-11T06:43:01.092Z,0.3
2023-03-11T06:44:01.704Z,0.3
2023-03-11T06:45:01.314Z,0.3
2023-03-11T06:46:00.981Z,0.3
2023-03-11T06:47:01.458Z,0.3
2023-03-11T06:48:01.054Z,0.3
2023-03-11T06:49:01.692Z,0.3
2023-03-11T06:50:01.305Z,0.3
2023-03-11T06:51:00.849Z,0.3
2023-03-11T06:52:01.428Z,0.3
2023-03-11T06:53:01.032Z,0.3
2023-03-11T06:54:01.597Z,0.3
2023-03-11T06:55:01.233Z,0.3
2023-03-11T06:56:01.771Z,0.3
2023-03-11T06:57:01.373Z,0.2
2023-03-11T06:58:00.964Z,0.3
2023-03-11T06:59:01.534Z,0.3
2023-03-11T07:00:01.142Z,0.3
2023-03-11T07:01:01.791Z,0.3
2023-03-11T07:02:01.361Z,0.3
2023-03-11T07:03:00.938Z,0.3
2023-03-11T07:04:01.584Z,0.4
2023-03-11T07:05:01.195Z,0.4
2023-03-11T07:06:01.754Z,0.5
2023-03-11T07:07:01.364Z,0.5
2023-03-11T07:08:00.966Z,0.5
2023-03-11T07:09:01.539Z,0.5
2023-03-11T07:10:01.202Z,0.6
2023-03-11T07:11:01.817Z,0.6
2023-03-11T07:12:01.416Z,0.6
2023-03-11T07:13:01.007Z,0.6
2023-03-11T07:14:01.595Z,0.6
2023-03-11T07:15:01.233Z,0.7
2023-03-11T07:16:01.770Z,0.7
2023-03-11T07:17:01.438Z,0.8
2023-03-11T07:18:01.001Z,0.8
2023-03-11T07:19:01.594Z,0.8
2023-03-11T07:20:01.215Z,0.8
2023-03-11T07:21:01.801Z,0.9
2023-03-11T07:22:01.424Z,0.9
2023-03-11T07:23:01.027Z,0.9
2023-03-11T07:24:01.610Z,0.9
2023-03-11T07:25:01.210Z,0.9
2023-03-11T07:26:01.789Z,1
2023-03-11T07:27:01.442Z,1.1
2023-03-11T07:28:01.027Z,1
2023-03-11T07:29:01.616Z,1.1
2023-03-11T07:30:01.207Z,1.1
2023-03-11T07:31:00.788Z,1.1
2023-03-11T07:32:01.481Z,1.1
2023-03-11T07:33:01.082Z,1.1
2023-03-11T07:34:01.614Z,1.1
2023-03-11T07:35:01.205Z,1.2
2023-03-11T07:36:00.850Z,1.2
2023-03-11T07:37:01.374Z,1.3
2023-03-11T07:38:00.983Z,1.3
2023-03-11T07:39:04.037Z,1.3
2023-03-11T07:40:01.141Z,1.4
2023-03-11T07:41:01.740Z,1.4
2023-03-11T07:42:01.329Z,1.5
2023-03-11T07:43:00.950Z,1.5
2023-03-11T07:44:01.521Z,1.5
2023-03-11T07:45:01.114Z,1.5
2023-03-11T07:46:01.732Z,1.5
2023-03-11T07:47:01.343Z,1.5
2023-03-11T07:48:00.950Z,1.5
2023-03-11T07:49:01.548Z,1.5
2023-03-11T07:50:01.193Z,1.5
2023-03-11T07:51:01.718Z,1.5
2023-03-11T07:52:01.316Z,1.6
2023-03-11T07:53:00.906Z,1.6
2023-03-11T07:54:01.508Z,1.6
2023-03-11T07:55:01.098Z,1.7
2023-03-11T07:56:01.668Z,1.7
2023-03-11T07:57:01.275Z,1.7
2023-03-11T07:58:00.854Z,1.7
2023-03-11T07:59:01.474Z,1.7
2023-03-11T08:00:01.100Z,1.7
2023-03-11T08:01:01.650Z,1.8
2023-03-11T08:02:01.265Z,1.8
2023-03-11T08:03:00.827Z,1.7
2023-03-11T08:04:01.492Z,1.7
2023-03-11T08:05:01.071Z,1.7
2023-03-11T08:06:01.663Z,1.7
2023-03-11T08:07:01.251Z,1.8
2023-03-11T08:08:00.838Z,1.8
2023-03-11T08:09:01.420Z,1.8
2023-03-11T08:10:01.010Z,1.8
2023-03-11T08:11:01.606Z,1.8
2023-03-11T08:12:01.218Z,1.8
2023-03-11T08:13:00.803Z,1.9
2023-03-11T08:14:01.390Z,1.9
2023-03-11T08:15:01.007Z,2
2023-03-11T08:16:01.668Z,2
2023-03-11T08:17:01.235Z,2.1
2023-03-11T08:18:00.822Z,2
2023-03-11T08:19:01.396Z,2
2023-03-11T08:20:00.985Z,2
2023-03-11T08:21:01.594Z,2
2023-03-11T08:22:01.184Z,2.1
2023-03-11T08:23:01.779Z,2.1
2023-03-11T08:24:01.419Z,2
2023-03-11T08:25:01.002Z,2.1
2023-03-11T08:26:01.578Z,2.1
2023-03-11T08:27:01.245Z,2.3
2023-03-11T08:28:00.826Z,2.4
2023-03-11T08:29:01.428Z,2.5
2023-03-11T08:30:01.018Z,2.3
2023-03-11T08:31:01.649Z,2.3
2023-03-11T08:32:01.250Z,2.3
2023-03-11T08:33:00.854Z,2.4
2023-03-11T08:34:01.423Z,2.4
2023-03-11T08:35:01.079Z,2.5
2023-03-11T08:36:01.703Z,2.4
2023-03-11T08:37:01.319Z,2.4
2023-03-11T08:38:00.928Z,2.5
2023-03-11T08:39:01.577Z,2.5
2023-03-11T08:40:01.147Z,2.4
2023-03-11T08:41:01.730Z,2.4
2023-03-11T08:42:01.319Z,2.4
2023-03-11T08:43:00.932Z,2.4
2023-03-11T08:44:01.509Z,2.5
2023-03-11T08:45:01.165Z,2.5
2023-03-11T08:46:01.796Z,2.4
2023-03-11T08:47:01.522Z,2.5
2023-03-11T08:48:00.986Z,2.5
2023-03-11T08:49:01.786Z,2.6
2023-03-11T08:50:01.269Z,2.6
2023-03-11T08:51:00.822Z,2.6
2023-03-11T08:52:01.409Z,2.7
2023-03-11T08:53:01.006Z,2.6
2023-03-11T08:54:01.598Z,2.8
2023-03-11T08:55:01.193Z,2.7
2023-03-11T08:56:01.774Z,2.7
2023-03-11T08:57:01.391Z,2.7
2023-03-11T08:58:00.985Z,2.7
2023-03-11T08:59:01.577Z,2.7
2023-03-11T09:00:01.170Z,2.8
2023-03-11T09:01:02.066Z,2.8
2023-03-11T09:02:01.679Z,2.8
2023-03-11T09:03:01.062Z,2.8
2023-03-11T09:04:01.570Z,2.8
2023-03-11T09:05:01.163Z,2.9
2023-03-11T09:06:01.859Z,3
2023-03-11T09:07:01.563Z,2.9
2023-03-11T09:08:00.989Z,2.9
2023-03-11T09:09:01.594Z,2.9
2023-03-11T09:10:01.189Z,2.8
2023-03-11T09:11:01.770Z,3
2023-03-11T09:12:01.359Z,2.9
2023-03-11T09:13:00.968Z,2.9
2023-03-11T09:14:01.520Z,2.9
2023-03-11T09:15:01.114Z,3
2023-03-11T09:16:01.728Z,3
2023-03-11T09:17:01.332Z,3.1
2023-03-11T09:18:00.944Z,3.1
2023-03-11T09:19:01.533Z,3.2
2023-03-11T09:20:01.120Z,3.2
2023-03-11T09:21:01.695Z,3.1
2023-03-11T09:22:01.290Z,3.2
2023-03-11T09:23:00.882Z,3.2
2023-03-11T09:24:01.432Z,3.2
2023-03-11T09:25:01.026Z,3.2
2023-03-11T09:26:01.611Z,3.2
2023-03-11T09:27:01.200Z,3.2
2023-03-11T09:28:01.803Z,3.3
2023-03-11T09:29:01.507Z,3.3
2023-03-11T09:30:01.011Z,3.4
2023-03-11T09:31:01.637Z,3.5
2023-03-11T09:32:01.252Z,3.5
2023-03-11T09:33:00.859Z,3.4
2023-03-11T09:34:01.424Z,3.5
2023-03-11T09:35:01.043Z,3.3
2023-03-11T09:36:01.686Z,3.3
2023-03-11T09:37:01.281Z,3.3
2023-03-11T09:38:00.854Z,3.2
2023-03-11T09:39:01.426Z,3.3
2023-03-11T09:40:01.024Z,3.3
2023-03-11T09:41:01.636Z,3.3
2023-03-11T09:42:01.225Z,3.3
2023-03-11T09:43:00.811Z,3.3
2023-03-11T09:44:01.382Z,3.4
2023-03-11T09:45:00.979Z,3.3
2023-03-11T09:46:01.570Z,3.4
2023-03-11T09:47:01.233Z,3.5
2023-03-11T09:48:01.735Z,3.6
2023-03-11T09:49:01.330Z,3.7
2023-03-11T09:50:00.918Z,3.7
2023-03-11T09:51:01.590Z,3.8
2023-03-11T09:52:01.177Z,3.8
2023-03-11T09:53:01.744Z,4
2023-03-11T09:54:01.335Z,3.9
2023-03-11T09:55:00.976Z,3.9
2023-03-11T09:56:01.572Z,3.9
2023-03-11T09:57:01.192Z,3.8
2023-03-11T09:58:01.758Z,3.8
2023-03-11T09:59:01.373Z,3.8
2023-03-11T10:00:00.965Z,3.7
2023-03-11T10:01:01.549Z,3.7
2023-03-11T10:02:01.205Z,3.8
2023-03-11T10:03:01.723Z,3.9
2023-03-11T10:04:01.349Z,4
2023-03-11T10:05:00.968Z,4.1
2023-03-11T10:06:01.528Z,3.9
2023-03-11T10:07:01.146Z,3.8
2023-03-11T10:08:01.709Z,3.8
2023-03-11T10:09:01.301Z,3.8
2023-03-11T10:10:00.907Z,3.9
2023-03-11T10:11:01.488Z,4
2023-03-11T10:12:01.078Z,4
2023-03-11T10:13:01.669Z,3.9
2023-03-11T10:14:01.262Z,4
2023-03-11T10:15:00.846Z,4
2023-03-11T10:16:01.472Z,4
2023-03-11T10:17:01.064Z,4.1
2023-03-11T10:18:01.648Z,4.2
2023-03-11T10:19:01.261Z,4.1
2023-03-11T10:20:00.832Z,4
2023-03-11T10:21:01.460Z,3.8
2023-03-11T10:22:01.054Z,3.8
2023-03-11T10:23:01.666Z,3.6
2023-03-11T10:24:01.262Z,3.6
2023-03-11T10:25:01.107Z,3.6
2023-03-11T10:26:01.452Z,3.6
2023-03-11T10:27:01.212Z,3.6
2023-03-11T10:28:01.626Z,3.6
2023-03-11T10:29:01.372Z,3.5
2023-03-11T10:30:00.795Z,3.6
2023-03-11T10:31:01.516Z,3.6
2023-03-11T10:32:01.068Z,3.6
2023-03-11T10:33:01.616Z,3.6
2023-03-11T10:34:01.220Z,3.7
2023-03-11T10:35:00.808Z,3.8
2023-03-11T10:36:01.447Z,3.9
2023-03-11T10:37:01.047Z,3.9
2023-03-11T10:38:01.639Z,4
2023-03-11T10:39:01.270Z,4.2
2023-03-11T10:40:00.799Z,4.2
2023-03-11T10:41:01.397Z,4.2
2023-03-11T10:42:00.995Z,4.3
2023-03-11T10:43:01.581Z,4.4
2023-03-11T10:44:01.246Z,4.6
2023-03-11T10:45:00.828Z,4.5
2023-03-11T10:46:01.461Z,4.6
2023-03-11T10:47:01.049Z,4.8
2023-03-11T10:48:01.623Z,4.9
2023-03-11T10:49:01.234Z,5
2023-03-11T10:50:00.794Z,4.9
2023-03-11T10:51:01.436Z,4.7
2023-03-11T10:52:01.027Z,4.8
2023-03-11T10:53:01.612Z,4.8
2023-03-11T10:54:01.228Z,4.8
2023-03-11T10:55:00.811Z,5
2023-03-11T10:56:01.384Z,4.9
2023-03-11T10:57:01.005Z,4.8
2023-03-11T10:58:01.583Z,4.7
2023-03-11T10:59:01.195Z,4.5
2023-03-11T11:00:01.763Z,4.3
2023-03-11T11:01:01.420Z,4.2
2023-03-11T11:02:01.003Z,4.3
2023-03-11T11:03:01.608Z,4.3
2023-03-11T11:04:01.261Z,4.4
2023-03-11T11:05:00.805Z,4.6
2023-03-11T11:06:01.380Z,4.5
2023-03-11T11:07:00.968Z,4.4
2023-03-11T11:08:01.580Z,4.3
2023-03-11T11:09:01.178Z,4.3
2023-03-11T11:10:01.758Z,4.3
2023-03-11T11:11:01.393Z,4.3
2023-03-11T11:12:00.998Z,4.3
2023-03-11T11:13:01.598Z,4.3
2023-03-11T11:14:01.210Z,4.5
2023-03-11T11:15:01.785Z,4.4
2023-03-11T11:16:01.380Z,4.4
2023-03-11T11:17:01.007Z,4.5
2023-03-11T11:18:01.552Z,4.5
2023-03-11T11:19:01.398Z,4.4
2023-03-11T11:20:01.710Z,4.4
2023-03-11T11:21:01.321Z,4.5
2023-03-11T11:22:00.916Z,4.5
2023-03-11T11:23:01.521Z,4.6
2023-03-11T11:24:01.138Z,4.8
2023-03-11T11:25:01.725Z,4.9
2023-03-11T11:26:01.319Z,4.8
2023-03-11T11:27:00.942Z,4.9
2023-03-11T11:28:01.501Z,5
2023-03-11T11:29:01.115Z,4.9
2023-03-11T11:30:01.706Z,4.9
2023-03-11T11:31:01.359Z,4.8
2023-03-11T11:32:00.898Z,4.8
2023-03-11T11:33:01.471Z,4.8
2023-03-11T11:34:01.083Z,4.7
2023-03-11T11:35:01.645Z,4.7
2023-03-11T11:36:01.239Z,4.7
2023-03-11T11:37:00.828Z,4.7
2023-03-11T11:38:01.396Z,4.8
2023-03-11T11:39:01.002Z,4.9
2023-03-11T11:40:01.591Z,5
2023-03-11T11:41:01.184Z,5.1
2023-03-11T11:42:01.772Z,5.1
2023-03-11T11:43:01.389Z,5.1
2023-03-11T11:44:00.978Z,5.3
2023-03-11T11:45:01.586Z,5.3
2023-03-11T11:46:01.305Z,5.3
2023-03-11T11:47:01.759Z,5.4
2023-03-11T11:48:01.345Z,5.4
2023-03-11T11:49:00.931Z,5.3
2023-03-11T11:50:01.552Z,5.3
2023-03-11T11:51:01.163Z,5.3
2023-03-11T11:52:01.772Z,5.4
2023-03-11T11:53:01.358Z,5.3
2023-03-11T11:54:00.944Z,5.3
2023-03-11T11:55:01.532Z,5.3
2023-03-11T11:56:01.183Z,5.3
2023-03-11T11:57:01.712Z,5.3
2023-03-11T11:58:01.299Z,5.5
2023-03-11T11:59:00.910Z,5.5
2023-03-11T12:00:01.478Z,5.5
2023-03-11T12:01:01.157Z,5.5
2023-03-11T12:02:01.721Z,5.4
2023-03-11T12:03:01.343Z,5.6
2023-03-11T12:04:01.002Z,5.7
2023-03-11T12:05:01.513Z,5.7
2023-03-11T12:06:01.170Z,5.7
2023-03-11T12:07:01.683Z,5.8
2023-03-11T12:08:01.305Z,5.8
2023-03-11T12:09:00.865Z,5.9
2023-03-11T12:10:09.970Z,6
2023-03-11T12:11:00.998Z,5.9
2023-03-11T12:12:01.587Z,5.8
2023-03-11T12:13:01.197Z,5.8
2023-03-11T12:14:01.763Z,5.8
2023-03-11T12:15:01.377Z,5.8
2023-03-11T12:16:01.113Z,5.8
2023-03-11T12:17:03.836Z,5.7
2023-03-11T12:18:01.113Z,5.9
2023-03-11T12:19:01.722Z,5.8
2023-03-11T12:20:01.360Z,5.7
2023-03-11T12:21:00.945Z,5.7
2023-03-11T12:22:01.533Z,5.5
2023-03-11T12:23:01.142Z,5.3
2023-03-11T12:24:01.760Z,5.3
2023-03-11T12:25:01.375Z,5.4
2023-03-11T12:26:00.989Z,5.6
2023-03-11T12:27:01.551Z,5.6
2023-03-11T12:28:01.146Z,5.6
2023-03-11T12:29:01.726Z,5.8
2023-03-11T12:30:01.345Z,6
2023-03-11T12:31:01.025Z,6.1
2023-03-11T12:32:01.523Z,6.1
2023-03-11T12:33:01.117Z,6
2023-03-11T12:34:01.703Z,6.1
2023-03-11T12:35:01.318Z,6.1
2023-03-11T12:36:00.939Z,6.1
2023-03-11T12:37:01.511Z,6.2
2023-03-11T12:38:01.118Z,6.1
2023-03-11T12:39:01.709Z,6.2
2023-03-11T12:40:01.328Z,6
2023-03-11T12:41:00.920Z,5.9
2023-03-11T12:42:01.507Z,5.8
2023-03-11T12:43:01.096Z,5.9
2023-03-11T12:44:01.683Z,6.1
2023-03-11T12:45:01.299Z,6
2023-03-11T12:46:00.880Z,5.9
2023-03-11T12:47:01.534Z,6
2023-03-11T12:48:01.105Z,5.9
2023-03-11T12:49:01.683Z,5.8
2023-03-11T12:50:01.292Z,5.8
2023-03-11T12:51:00.857Z,5.7
2023-03-11T12:52:01.450Z,5.7
2023-03-11T12:53:01.089Z,5.4
2023-03-11T12:54:01.621Z,5.3
2023-03-11T12:55:01.301Z,5.3
2023-03-11T12:56:00.799Z,5.2
2023-03-11T12:57:01.412Z,5.1
2023-03-11T12:58:01.016Z,5.3
2023-03-11T12:59:01.584Z,5.4
2023-03-11T13:00:01.173Z,5.3
2023-03-11T13:01:01.757Z,5.4
2023-03-11T13:02:01.409Z,5.5
2023-03-11T13:03:01.114Z,5.6
2023-03-11T13:04:01.600Z,5.6
2023-03-11T13:05:01.214Z,5.6
2023-03-11T13:06:00.816Z,5.7
2023-03-11T13:07:01.370Z,5.6
2023-03-11T13:08:00.978Z,5.5
2023-03-11T13:09:01.554Z,5.4
2023-03-11T13:10:01.155Z,5.3
2023-03-11T13:11:01.730Z,5.3
2023-03-11T13:12:01.316Z,5.2
2023-03-11T13:13:00.906Z,5.2
2023-03-11T13:14:01.511Z,5.1
2023-03-11T13:15:02.545Z,5.2
2023-03-11T13:16:01.232Z,5.4
2023-03-11T13:17:00.829Z,5.5
2023-03-11T13:18:01.437Z,5.5
2023-03-11T13:19:01.572Z,5.6
2023-03-11T13:20:01.185Z,5.7
2023-03-11T13:21:01.759Z,5.6
2023-03-11T13:22:01.351Z,5.5
2023-03-11T13:23:00.952Z,5.5
2023-03-11T13:24:01.527Z,5.4
2023-03-11T13:25:01.164Z,5.5
2023-03-11T13:26:01.716Z,5.4
2023-03-11T13:27:03.420Z,5.3
2023-03-11T13:28:00.856Z,5.3
2023-03-11T13:29:01.447Z,5.3
2023-03-11T13:30:01.058Z,5.4
2023-03-11T13:31:01.642Z,5.3
2023-03-11T13:32:01.229Z,5.3
2023-03-11T13:33:00.817Z,5.3
2023-03-11T13:34:01.404Z,5.5
2023-03-11T13:35:01.044Z,5.7
2023-03-11T13:36:01.750Z,5.7
2023-03-11T13:37:01.246Z,5.8
2023-03-11T13:38:00.846Z,5.8
2023-03-11T13:39:01.455Z,5.9
2023-03-11T13:40:01.050Z,6
2023-03-11T13:41:01.641Z,6
2023-03-11T13:42:01.238Z,5.8
2023-03-11T13:43:02.828Z,5.9
2023-03-11T13:44:01.382Z,5.9
2023-03-11T13:45:00.977Z,6
2023-03-11T13:46:01.619Z,5.9
2023-03-11T13:47:01.209Z,5.9
2023-03-11T13:48:00.793Z,6